createdAt,value
2023-03-10T00:00:49.116Z,94.77
2023-03-10T00:03:16.034Z,94.70
2023-03-10T00:05:43.185Z,94.86
2023-03-10T00:08:10.120Z,94.96
2023-03-10T00:10:38.153Z,95.05
2023-03-10T00:13:05.090Z,94.90
2023-03-10T00:15:32.021Z,94.95
2023-03-10T00:17:58.955Z,94.98
2023-03-10T00:20:26.414Z,95.05
2023-03-10T00:22:53.326Z,95.16
2023-03-10T00:25:20.235Z,95.17
2023-03-10T00:27:47.155Z,95.22
2023-03-10T00:30:15.021Z,95.49
2023-03-10T00:32:41.987Z,95.47
2023-03-10T00:35:09.224Z,95.41
2023-03-10T00:37:38.553Z,95.73
2023-03-10T00:40:12.344Z,94.92
2023-03-10T00:42:39.419Z,95.33
2023-03-10T00:45:07.221Z,95.39
2023-03-10T00:47:34.220Z,95.26
2023-03-10T00:50:01.513Z,95.29
2023-03-10T00:52:33.287Z,94.82
2023-03-10T00:55:00.224Z,95.16
2023-03-10T00:57:27.231Z,95.89
2023-03-10T00:59:54.307Z,95.19
2023-03-10T01:02:21.649Z,95.39
2023-03-10T01:04:48.985Z,95.76
2023-03-10T01:07:15.977Z,95.23
2023-03-10T01:09:43.218Z,95.43
2023-03-10T01:12:10.249Z,95.44
2023-03-10T01:14:38.257Z,95.20
2023-03-10T01:17:05.409Z,95.18
2023-03-10T01:19:32.617Z,95.25
2023-03-10T01:22:01.479Z,95.42
2023-03-10T01:24:28.431Z,95.45
2023-03-10T01:26:55.393Z,95.49
2023-03-10T01:29:22.469Z,95.71
2023-03-10T01:31:49.419Z,95.60
2023-03-10T01:34:16.426Z,96.11
2023-03-10T01:36:43.395Z,95.59
2023-03-10T01:39:10.392Z,95.97
2023-03-10T01:41:40.441Z,95.42
2023-03-10T01:44:18.539Z,93.93
2023-03-10T01:46:50.227Z,95.24
2023-03-10T01:49:26.388Z,94.23
2023-03-10T01:52:05.128Z,95.17
2023-03-10T01:54:53.775Z,93.29
2023-03-10T01:57:29.932Z,95.11
2023-03-10T01:59:58.484Z,95.96
2023-03-10T02:02:26.987Z,96.49
2023-03-10T02:04:55.636Z,96.60
2023-03-10T02:07:28.830Z,95.45
2023-03-10T02:09:56.729Z,96.52
2023-03-10T02:12:24.057Z,96.82
2023-03-10T02:14:52.548Z,96.32
2023-03-10T02:17:23.107Z,96.68
2023-03-10T02:19:59.528Z,94.75
2023-03-10T02:22:27.195Z,96.91
2023-03-10T02:25:37.282Z,93.65
2023-03-10T02:28:05.079Z,96.46
2023-03-10T02:30:41.396Z,94.99
2023-03-10T02:33:18.381Z,96.68
2023-03-10T02:35:46.025Z,97.25
2023-03-10T02:38:16.824Z,97.27
2023-03-10T02:40:50.745Z,96.46
2023-03-10T02:43:30.381Z,95.29
2023-03-10T02:46:06.964Z,96.72
2023-03-10T02:48:39.541Z,96.84
2023-03-10T02:51:31.071Z,94.92
2023-03-10T02:54:02.069Z,97.18
2023-03-10T02:56:30.970Z,97.41
2023-03-10T02:58:59.615Z,97.32
2023-03-10T03:01:27.243Z,97.51
2023-03-10T03:03:56.091Z,97.58
2023-03-10T03:06:23.405Z,98.00
2023-03-10T03:08:50.643Z,97.75
2023-03-10T03:11:20.033Z,98.19
2023-03-10T03:13:47.586Z,97.99
2023-03-10T03:16:15.300Z,97.72
2023-03-10T03:18:44.314Z,97.75
2023-03-10T03:21:18.231Z,97.53
2023-03-10T03:23:48.007Z,97.92
2023-03-10T03:26:26.821Z,96.44
2023-03-10T03:29:00.276Z,97.56
2023-03-10T03:31:30.976Z,97.94
2023-03-10T03:34:06.374Z,97.76
2023-03-10T03:36:33.912Z,97.92
2023-03-10T03:39:00.965Z,98.42
2023-03-10T03:41:30.900Z,97.78
2023-03-10T03:43:57.966Z,97.32
2023-03-10T03:46:25.209Z,97.66
2023-03-10T03:48:52.218Z,98.28
2023-03-10T03:51:19.907Z,97.96
2023-03-10T03:53:47.213Z,98.45
2023-03-10T03:56:14.464Z,98.26
2023-03-10T03:58:44.285Z,98.25
2023-03-10T04:01:12.745Z,98.28
2023-03-10T04:03:44.497Z,98.45
2023-03-10T04:06:14.963Z,98.47
2023-03-10T04:08:42.050Z,97.93
2023-03-10T04:11:09.628Z,98.47
2023-03-10T04:13:41.350Z,98.17
2023-03-10T04:16:08.644Z,98.43
2023-03-10T04:18:37.915Z,98.91
2023-03-10T04:21:05.638Z,98.38
2023-03-10T04:23:34.028Z,98.50
2023-03-10T04:26:01.135Z,98.38
2023-03-10T04:28:30.293Z,98.77
2023-03-10T04:30:57.578Z,98.89
2023-03-10T04:33:27.793Z,98.30
2023-03-10T04:35:54.803Z,98.82
2023-03-10T04:38:23.677Z,98.69
2023-03-10T04:40:56.491Z,97.85
2023-03-10T04:43:27.461Z,98.46
2023-03-10T04:45:55.372Z,98.23
2023-03-10T04:48:24.324Z,98.49
2023-03-10T04:51:04.324Z,96.07
2023-03-10T04:53:36.385Z,98.13
2023-03-10T04:56:07.808Z,97.45
2023-03-10T04:58:36.943Z,98.33
2023-03-10T05:01:13.116Z,96.74
2023-03-10T05:03:45.286Z,98.38
2023-03-10T05:06:22.012Z,96.36
2023-03-10T05:09:04.012Z,98.28
2023-03-10T05:11:32.619Z,97.75
2023-03-10T05:13:59.916Z,98.27
2023-03-10T05:16:27.027Z,98.01
2023-03-10T05:18:54.207Z,98.88
2023-03-10T05:21:25.330Z,98.13
2023-03-10T05:23:54.626Z,98.36
2023-03-10T05:26:23.237Z,98.36
2023-03-10T05:28:50.210Z,98.12
2023-03-10T05:31:26.512Z,98.50
2023-03-10T05:33:58.949Z,98.64
2023-03-10T05:36:26.352Z,98.55
2023-03-10T05:38:53.378Z,98.19
2023-03-10T05:41:20.450Z,98.46
2023-03-10T05:43:50.528Z,98.44
2023-03-10T05:46:18.688Z,98.43
2023-03-10T05:48:51.215Z,97.98
2023-03-10T05:51:18.687Z,98.62
2023-03-10T05:53:46.945Z,98.38
2023-03-10T05:56:20.786Z,97.93
2023-03-10T05:58:51.795Z,98.17
2023-03-10T06:01:22.095Z,98.58
2023-03-10T06:03:49.031Z,98.02
2023-03-10T06:06:16.063Z,98.19
2023-03-10T06:08:43.375Z,98.06
2023-03-10T06:11:10.422Z,98.24
2023-03-10T06:13:37.767Z,98.87
2023-03-10T06:16:06.870Z,98.54
2023-03-10T06:18:34.964Z,98.66
2023-03-10T06:21:09.901Z,97.34
2023-03-10T06:23:37.677Z,98.75
2023-03-10T06:26:09.372Z,98.73
2023-03-10T06:28:40.062Z,98.99
2023-03-10T06:31:13.357Z,98.64
2023-03-10T06:33:40.516Z,98.99
2023-03-10T06:36:10.675Z,98.49
2023-03-10T06:38:38.244Z,98.67
2023-03-10T06:41:06.094Z,98.45
2023-03-10T06:43:34.241Z,98.62
2023-03-10T06:46:08.816Z,98.10
2023-03-10T06:48:37.429Z,99.24
2023-03-10T06:51:16.437Z,97.87
2023-03-10T06:53:43.531Z,98.47
2023-03-10T06:56:18.229Z,98.18
2023-03-10T06:58:45.969Z,98.59
2023-03-10T07:01:29.378Z,97.12
2023-03-10T07:03:57.660Z,98.80
2023-03-10T07:06:25.593Z,99.26
2023-03-10T07:08:54.206Z,99.13
2023-03-10T07:11:22.767Z,99.12
2023-03-10T07:13:49.757Z,99.60
2023-03-10T07:16:17.759Z,99.70
2023-03-10T07:18:45.344Z,100.00
2023-03-10T07:21:16.511Z,99.64
2023-03-10T07:23:43.882Z,99.84
2023-03-10T07:26:13.211Z,99.94
2023-03-10T07:28:40.458Z,99.72
2023-03-10T07:31:11.728Z,100.00
2023-03-10T07:33:39.462Z,100.00
2023-03-10T07:36:13.190Z,99.92
2023-03-10T07:38:41.167Z,100.00
2023-03-10T07:41:15.724Z,99.02
2023-03-10T07:43:43.117Z,100.00
2023-03-10T07:46:13.419Z,99.76
2023-03-10T07:48:40.515Z,100.00
2023-03-10T07:51:07.959Z,98.88
2023-03-10T07:53:34.994Z,99.47
2023-03-10T07:56:10.904Z,98.41
2023-03-10T07:58:38.652Z,99.02
2023-03-10T08:01:06.972Z,98.82
2023-03-10T08:03:34.646Z,98.49
2023-03-10T08:06:02.499Z,97.59
2023-03-10T08:08:29.529Z,97.74
2023-03-10T08:11:09.546Z,95.34
2023-03-10T08:13:37.151Z,97.20
2023-03-10T08:16:04.835Z,96.54
2023-03-10T08:18:32.773Z,96.58
2023-03-10T08:21:03.340Z,96.71
2023-03-10T08:23:30.268Z,95.83
2023-03-10T08:26:05.608Z,94.89
2023-03-10T08:28:35.146Z,96.39
2023-03-10T08:31:13.286Z,96.05
2023-03-10T08:33:40.993Z,96.67
2023-03-10T08:36:18.440Z,96.23
2023-03-10T08:38:45.679Z,96.95
2023-03-10T08:41:24.214Z,95.28
2023-03-10T08:43:53.873Z,97.16
2023-03-10T08:46:24.544Z,96.75
2023-03-10T08:48:51.741Z,96.85
2023-03-10T08:51:19.586Z,96.50
2023-03-10T08:53:48.941Z,97.26
2023-03-10T08:56:19.129Z,98.01
2023-03-10T08:58:46.543Z,97.55
2023-03-10T09:01:15.699Z,97.54
2023-03-10T09:03:45.341Z,96.81
2023-03-10T09:06:13.736Z,97.82
2023-03-10T09:08:41.448Z,98.00
2023-03-10T09:11:10.462Z,97.53
2023-03-10T09:13:38.274Z,98.57
2023-03-10T09:16:05.576Z,98.49
2023-03-10T09:18:32.529Z,98.09
2023-03-10T09:20:59.451Z,98.42
2023-03-10T09:23:26.357Z,98.37
2023-03-10T09:25:53.394Z,98.60
2023-03-10T09:28:20.384Z,98.24
2023-03-10T09:30:48.170Z,98.57
2023-03-10T09:33:19.462Z,98.64
2023-03-10T09:36:05.052Z,98.32
2023-03-10T09:38:32.693Z,98.17
2023-03-10T09:41:51.627Z,96.13
2023-03-10T09:44:31.974Z,97.55
2023-03-10T09:47:10.098Z,98.60
2023-03-10T09:49:44.223Z,98.01
2023-03-10T09:52:44.060Z,96.54
2023-03-10T09:55:21.759Z,96.78
2023-03-10T09:57:53.086Z,98.43
2023-03-10T10:00:52.336Z,96.22
2023-03-10T10:03:52.542Z,97.14
2023-03-10T10:06:28.913Z,94.45
2023-03-10T10:09:32.744Z,95.55
2023-03-10T10:12:15.023Z,96.29
2023-03-10T10:14:48.038Z,98.10
2023-03-10T10:18:08.651Z,95.39
2023-03-10T10:21:00.244Z,96.50
2023-03-10T10:23:40.319Z,96.65
2023-03-10T10:26:20.774Z,96.55
2023-03-10T10:29:18.565Z,96.69
2023-03-10T10:32:13.653Z,96.84
2023-03-10T10:34:44.233Z,98.57
2023-03-10T10:37:38.765Z,97.30
2023-03-10T10:40:24.460Z,96.71
2023-03-10T10:43:00.701Z,97.43
2023-03-10T10:45:36.771Z,97.13
2023-03-10T10:48:04.991Z,98.73
2023-03-10T10:50:34.814Z,98.81
2023-03-10T10:53:21.617Z,98.01
2023-03-10T10:56:04.605Z,97.16
2023-03-10T10:58:35.923Z,98.37
2023-03-10T11:01:07.129Z,98.20
2023-03-10T11:03:37.639Z,98.83
2023-03-10T11:06:20.454Z,97.92
2023-03-10T11:08:51.254Z,97.35
2023-03-10T11:11:51.055Z,94.71
2023-03-10T11:15:18.019Z,95.06
2023-03-10T11:18:15.344Z,95.89
2023-03-10T11:21:07.025Z,96.08
2023-03-10T11:24:00.842Z,95.66
2023-03-10T11:26:49.249Z,95.96
2023-03-10T11:29:42.576Z,95.31
2023-03-10T11:32:57.474Z,94.90
2023-03-10T11:35:36.575Z,94.72
2023-03-10T11:38:39.525Z,94.73
2023-03-10T11:41:11.428Z,97.02
2023-03-10T11:43:53.922Z,95.08
2023-03-10T11:46:58.518Z,95.96
2023-03-10T11:49:35.586Z,95.44
2023-03-10T11:52:17.097Z,97.10
2023-03-10T11:54:51.093Z,97.11
2023-03-10T11:57:22.185Z,97.61
2023-03-10T12:00:04.350Z,96.38
2023-03-10T12:02:44.328Z,97.63
2023-03-10T12:05:20.980Z,96.73
2023-03-10T12:07:53.351Z,97.42
2023-03-10T12:10:22.917Z,96.04
2023-03-10T12:12:53.607Z,96.18
2023-03-10T12:15:36.729Z,96.46
2023-03-10T12:18:06.153Z,97.43
2023-03-10T12:20:35.354Z,96.61
2023-03-10T12:23:11.327Z,96.21
2023-03-10T12:25:38.570Z,97.03
2023-03-10T12:28:17.638Z,96.89
2023-03-10T12:30:46.326Z,97.33
2023-03-10T12:33:52.362Z,96.00
2023-03-10T12:36:36.868Z,96.85
2023-03-10T12:39:28.578Z,95.56
2023-03-10T12:41:58.333Z,97.30
2023-03-10T12:44:55.909Z,95.98
2023-03-10T12:47:47.098Z,97.05
2023-03-10T12:50:36.270Z,95.26
2023-03-10T12:53:11.482Z,96.73
2023-03-10T12:55:41.778Z,97.83
2023-03-10T12:58:27.178Z,96.61
2023-03-10T13:01:05.463Z,97.60
2023-03-10T13:03:48.646Z,96.40
2023-03-10T13:06:35.378Z,97.34
2023-03-10T13:09:21.031Z,97.49
2023-03-10T13:12:03.730Z,96.84
2023-03-10T13:14:40.871Z,96.95
2023-03-10T13:17:23.384Z,97.53
2023-03-10T13:20:24.649Z,96.70
2023-03-10T13:22:55.748Z,95.68
2023-03-10T13:25:23.010Z,95.89
2023-03-10T13:27:50.240Z,98.46
2023-03-10T13:30:27.078Z,98.32
2023-03-10T13:33:01.292Z,97.70
2023-03-10T13:35:37.504Z,97.72
2023-03-10T13:38:16.666Z,97.36
2023-03-10T13:41:05.008Z,97.61
2023-03-10T13:43:37.472Z,98.15
2023-03-10T13:46:18.859Z,97.67
2023-03-10T13:48:49.768Z,97.56
2023-03-10T13:51:32.228Z,98.81
2023-03-10T13:54:31.904Z,97.61
2023-03-10T13:57:51.252Z,97.83
2023-03-10T14:00:24.931Z,99.62
2023-03-10T14:02:53.795Z,99.71
2023-03-10T14:05:45.812Z,98.74
2023-03-10T14:08:33.711Z,99.51
2023-03-10T14:11:34.332Z,99.23
2023-03-10T14:14:04.849Z,100.00
2023-03-10T14:16:49.735Z,99.91
2023-03-10T14:19:55.918Z,99.88
2023-03-10T14:22:43.435Z,99.64
2023-03-10T14:25:19.834Z,100.00
2023-03-10T14:28:12.530Z,99.71
2023-03-10T14:30:44.050Z,100.00
2023-03-10T14:33:15.831Z,100.00
2023-03-10T14:35:43.955Z,100.00
2023-03-10T14:38:10.929Z,100.00
2023-03-10T14:40:51.672Z,99.94
2023-03-10T14:43:25.600Z,99.85
2023-03-10T14:45:56.253Z,99.63
2023-03-10T14:48:28.243Z,99.29
2023-03-10T14:50:56.915Z,99.37
2023-03-10T14:53:25.965Z,98.40
2023-03-10T14:56:00.265Z,98.86
2023-03-10T14:58:47.497Z,97.17
2023-03-10T15:01:17.544Z,98.56
2023-03-10T15:03:45.413Z,97.94
2023-03-10T15:06:14.552Z,98.81
2023-03-10T15:08:41.488Z,98.67
2023-03-10T15:11:09.268Z,98.50
2023-03-10T15:13:38.141Z,98.84
2023-03-10T15:16:06.616Z,97.42
2023-03-10T15:18:33.795Z,97.84
2023-03-10T15:21:02.327Z,98.17
2023-03-10T15:23:30.226Z,97.51
2023-03-10T15:25:58.382Z,97.64
2023-03-10T15:28:25.514Z,98.14
2023-03-10T15:30:54.656Z,96.58
2023-03-10T15:33:21.665Z,96.56
2023-03-10T15:35:48.691Z,97.35
2023-03-10T15:38:15.863Z,96.44
2023-03-10T15:40:43.115Z,97.08
2023-03-10T15:43:10.317Z,96.99
2023-03-10T15:45:42.463Z,96.41
2023-03-10T15:48:10.678Z,96.01
2023-03-10T15:50:41.712Z,96.25
2023-03-10T15:53:08.785Z,94.41
2023-03-10T15:55:42.158Z,95.24
2023-03-10T15:58:10.928Z,96.46
2023-03-10T16:00:38.586Z,96.40
2023-03-10T16:03:05.549Z,96.41
2023-03-10T16:05:32.520Z,95.22
2023-03-10T16:07:59.460Z,95.82
2023-03-10T16:10:26.552Z,95.50
2023-03-10T16:12:53.486Z,94.83
2023-03-10T16:15:20.497Z,93.23
2023-03-10T16:17:47.434Z,93.40
2023-03-10T16:20:16.772Z,94.64
2023-03-10T16:22:43.822Z,94.55
2023-03-10T16:25:16.855Z,93.43
2023-03-10T16:27:45.914Z,92.24
2023-03-10T16:30:16.291Z,92.01
2023-03-10T16:32:50.799Z,92.78
2023-03-10T16:35:18.269Z,92.43
2023-03-10T16:37:45.225Z,94.45
2023-03-10T16:40:12.697Z,93.43
2023-03-10T16:42:43.152Z,93.39
2023-03-10T16:45:10.690Z,93.29
2023-03-10T16:47:37.613Z,92.21
2023-03-10T16:50:04.976Z,93.01
2023-03-10T16:52:31.945Z,93.94
2023-03-10T16:55:01.296Z,93.29
2023-03-10T16:57:28.286Z,92.28
2023-03-10T16:59:55.359Z,92.03
2023-03-10T17:02:22.292Z,92.81
2023-03-10T17:04:49.234Z,92.03
2023-03-10T17:07:16.278Z,91.42
2023-03-10T17:09:43.210Z,90.45
2023-03-10T17:12:10.152Z,90.64
2023-03-10T17:14:37.085Z,90.08
2023-03-10T17:17:06.565Z,90.84
2023-03-10T17:19:34.729Z,89.80
2023-03-10T17:22:01.684Z,90.94
2023-03-10T17:24:29.036Z,88.92
2023-03-10T17:26:55.970Z,89.85
2023-03-10T17:29:22.897Z,89.22
2023-03-10T17:31:51.344Z,88.62
2023-03-10T17:34:19.589Z,88.24
2023-03-10T17:36:50.238Z,87.95
2023-03-10T17:39:22.772Z,87.69
2023-03-10T17:41:49.897Z,89.21
2023-03-10T17:44:17.325Z,88.57
2023-03-10T17:46:45.343Z,90.41
2023-03-10T17:49:13.890Z,90.67
2023-03-10T17:51:44.049Z,89.56
2023-03-10T17:54:20.823Z,89.21
2023-03-10T17:56:49.140Z,89.42
2023-03-10T17:59:16.820Z,90.65
2023-03-10T18:01:45.495Z,89.64
2023-03-10T18:04:13.295Z,88.86
2023-03-10T18:06:40.578Z,90.17
2023-03-10T18:09:13.222Z,90.23
2023-03-10T18:11:40.536Z,90.72
2023-03-10T18:14:07.772Z,91.40
2023-03-10T18:16:40.080Z,91.23
2023-03-10T18:19:10.532Z,90.47
2023-03-10T18:21:38.652Z,90.58
2023-03-10T18:24:06.482Z,89.46
2023-03-10T18:26:33.731Z,90.24
2023-03-10T18:29:01.579Z,89.37
2023-03-10T18:31:32.688Z,88.91
2023-03-10T18:34:00.582Z,91.11
2023-03-10T18:36:28.675Z,89.95
2023-03-10T18:38:56.723Z,89.47
2023-03-10T18:41:29.387Z,89.90
2023-03-10T18:43:56.364Z,91.39
2023-03-10T18:46:23.411Z,89.76
2023-03-10T18:48:55.759Z,90.88
2023-03-10T18:51:28.522Z,88.87
2023-03-10T18:53:55.901Z,89.78
2023-03-10T18:56:25.535Z,90.21
2023-03-10T18:58:52.552Z,90.36
2023-03-10T19:01:19.524Z,88.66
2023-03-10T19:03:46.473Z,89.94
2023-03-10T19:06:13.385Z,88.64
2023-03-10T19:08:41.500Z,90.13
2023-03-10T19:11:08.582Z,89.50
2023-03-10T19:13:40.210Z,90.50
2023-03-10T19:16:09.022Z,90.35
2023-03-10T19:18:36.689Z,89.92
2023-03-10T19:21:04.804Z,89.66
2023-03-10T19:23:33.966Z,89.12
2023-03-10T19:26:01.654Z,89.65
2023-03-10T19:28:28.843Z,89.22
2023-03-10T19:30:55.952Z,89.49
2023-03-10T19:33:23.426Z,89.58
2023-03-10T19:35:51.293Z,87.78
2023-03-10T19:38:18.396Z,88.51
2023-03-10T19:40:46.887Z,87.01
2023-03-10T19:43:13.895Z,87.50
2023-03-10T19:45:40.793Z,87.52
2023-03-10T19:48:07.719Z,85.96
2023-03-10T19:50:34.690Z,86.82
2023-03-10T19:53:01.606Z,86.81
2023-03-10T19:55:29.503Z,87.37
2023-03-10T19:57:56.514Z,86.39
2023-03-10T20:00:30.720Z,86.83
2023-03-10T20:02:58.532Z,86.59
2023-03-10T20:05:26.761Z,86.74
2023-03-10T20:07:53.951Z,86.75
2023-03-10T20:10:20.904Z,85.64
2023-03-10T20:12:48.038Z,85.02
2023-03-10T20:15:15.512Z,86.41
2023-03-10T20:17:42.776Z,86.27
2023-03-10T20:20:11.266Z,87.22
2023-03-10T20:22:49.473Z,85.91
2023-03-10T20:25:20.292Z,85.90
2023-03-10T20:27:49.746Z,86.32
2023-03-10T20:30:23.831Z,84.56
2023-03-10T20:32:51.452Z,86.35
2023-03-10T20:35:19.021Z,86.57
2023-03-10T20:37:46.119Z,87.29
2023-03-10T20:40:22.895Z,84.25
2023-03-10T20:42:56.113Z,85.57
2023-03-10T20:45:23.587Z,85.94
2023-03-10T20:47:50.707Z,86.92
2023-03-10T20:50:18.099Z,85.67
2023-03-10T20:52:45.555Z,85.48
2023-03-10T20:55:29.483Z,85.32
2023-03-10T20:57:59.799Z,86.03
2023-03-10T21:00:29.877Z,85.66
2023-03-10T21:02:57.887Z,86.02
2023-03-10T21:05:27.613Z,85.35
2023-03-10T21:07:55.278Z,85.47
2023-03-10T21:10:23.262Z,85.69
2023-03-10T21:12:50.736Z,86.94
2023-03-10T21:15:19.291Z,86.28
2023-03-10T21:17:46.712Z,84.23
2023-03-10T21:20:19.895Z,84.92
2023-03-10T21:22:47.146Z,86.13
2023-03-10T21:25:21.381Z,85.25
2023-03-10T21:27:51.200Z,84.91
2023-03-10T21:30:20.369Z,85.88
2023-03-10T21:32:47.745Z,84.68
2023-03-10T21:35:14.896Z,84.31
2023-03-10T21:37:46.675Z,85.53
2023-03-10T21:40:17.914Z,84.51
2023-03-10T21:42:45.567Z,86.18
2023-03-10T21:45:16.675Z,83.47
2023-03-10T21:47:44.174Z,83.33
2023-03-10T21:50:13.148Z,85.61
2023-03-10T21:52:41.421Z,84.38
2023-03-10T21:55:17.636Z,85.71
2023-03-10T21:57:44.803Z,86.01
2023-03-10T22:00:13.582Z,85.96
2023-03-10T22:02:40.646Z,86.27
2023-03-10T22:05:08.461Z,86.26
2023-03-10T22:07:35.404Z,86.40
2023-03-10T22:10:02.464Z,85.83
2023-03-10T22:12:29.380Z,85.40
2023-03-10T22:14:57.715Z,86.35
2023-03-10T22:17:26.277Z,84.97
2023-03-10T22:19:56.411Z,85.70
2023-03-10T22:22:23.496Z,85.63
2023-03-10T22:24:50.793Z,85.67
2023-03-10T22:27:17.725Z,85.25
2023-03-10T22:29:45.808Z,86.07
2023-03-10T22:32:12.873Z,86.19
2023-03-10T22:34:39.888Z,85.24
2023-03-10T22:37:06.837Z,86.45
2023-03-10T22:39:33.829Z,86.25
2023-03-10T22:42:00.789Z,86.82
2023-03-10T22:44:27.811Z,86.76
2023-03-10T22:46:54.945Z,86.91
2023-03-10T22:49:21.916Z,86.73
2023-03-10T22:51:48.864Z,86.88
2023-03-10T22:54:15.782Z,87.07
2023-03-10T22:56:42.712Z,86.83
2023-03-10T22:59:09.607Z,86.72
2023-03-10T23:01:36.685Z,86.64
2023-03-10T23:04:03.718Z,87.18
2023-03-10T23:06:31.804Z,87.20
2023-03-10T23:08:59.200Z,86.93
2023-03-10T23:11:26.293Z,87.53
2023-03-10T23:13:53.341Z,87.03
2023-03-10T23:16:20.306Z,87.24
2023-03-10T23:18:47.503Z,87.30
2023-03-10T23:21:15.163Z,86.76
2023-03-10T23:23:43.688Z,85.77
2023-03-10T23:26:11.676Z,86.18
2023-03-10T23:28:39.105Z,85.92
2023-03-10T23:31:07.266Z,85.93
2023-03-10T23:33:34.820Z,85.70
2023-03-10T23:36:01.924Z,86.81
2023-03-10T23:38:28.920Z,86.76
2023-03-10T23:40:55.903Z,86.48
2023-03-10T23:43:22.966Z,86.84
2023-03-10T23:45:50.294Z,86.72
2023-03-10T23:48:18.331Z,85.12
2023-03-10T23:50:47.699Z,85.25
2023-03-10T23:53:17.031Z,85.99
2023-03-10T23:55:46.532Z,86.05
2023-03-10T23:58:16.729Z,86.67
